메인 페이지
METAR-TAF:

METAR-TAF

공항 :

Lafayette Regional Airport

Lafayette, 루이지애나, 미국

위도: 30-12-08N, 경도: 091-59-35W, 고도: 12m

현재 날씨관측

예보는 1 시간 1분 전, 18:53시(UTC)에 발표되었습니다.
6kt
온도 27°C
습도 79%
기압 1014 hPa
시정: 16.1km
고도 11000ft 상공 구름 보통

METAR: KLFT 171853Z 17006KT 10SM SCT110 27/23 A2994 RMK AO2 LTG DSNT S SLP136 T02720228

시각: 14:54 (19:54 UTC)

예보

예보는 11분 전, 19:43시(UTC)에 발표되었습니다.
예보 대상 시간: 17일 20시부터 18일 18시까지 (UTC)
남남서10kt
시정: 10km
고도 2500ft 상공 구름 보통, 적란운.
고도 5000ft 상공 구름 많음
고도 15000ft 상공 구름 많음
시계 내 뇌우
18일 0100시부터 (UTC)
4kt
시정: 10km
고도 25000ft 상공 구름 많음
18일 1500시부터 (UTC)
서남서6kt
시정: 10km
고도 3500ft 상공 구름 보통

TAF: KLFT 171943Z 1720/1818 21010KT P6SM VCTS SCT025CB BKN050 BKN150 FM180100 18004KT P6SM BKN250 FM181500 24006KT P6SM SCT035

4,000개 이상의 공항 관측 자료 및 예보 (METAR 및 TAF 보고).

지도상에서 검색 가능한 기상관측소가 노란 점과 빨간 점으로 표시되어 있습니다.

기상관측소 명을 보려면 표시 위로 마우스를 이동하세요.

날씨 관측과 예보를 보려면 클릭하세요.

지도 변경 : 확대하려면 엑스 표시가 있는 녹색 버튼, 축소하려면 빼기 표시가 있는 녹색 버튼, 다음 페이지의 지도를 보려면 녹색 화살표를 클릭하세요.


METAR-TAF: